SBRB/RBR METAR and TAF weather

Enter ICAO airport designator
Station Type Date Time Source
SBRB METAR 2019/10/21 02:00 UTC NOAA

SBRB 210200Z 00000KT CAVOK 23/23 Q1012


Station Type Date Time Source
SBRB Decoded METAR 2019/10/21 02:00 UTC NOAA

Rio Branco, Brazil (SBRB) 10-00S 067-48W 143M
Oct 20, 2019 - 10:00 PM EDT / 2019.10.21 0200 UTC
Wind: Calm:0
Visibility: greater than 7 mile(s):0
Temperature: 73 F (23 C)
Dew Point: 73 F (23 C)
Relative Humidity: 100%
Pressure (altimeter): 29.88 in. Hg (1012 hPa)
ob: SBRB 210200Z 00000KT CAVOK 23/23 Q1012
cycle: 2

Station Type Date Time Source
SBRB TAF 2019/10/21 00:00 UTC NOAA

TAF SBRB 202100Z 2100/2112 30005KT 9999 FEW020 TN22/2107Z TX24/2112Z
RMK PHD

Example: see airport list